Time;durP1;ratioP1;P1;durP2;ratioP2;P2;SDS_P1;SDS_P2;PMS_P1;PMS_P2;Temp;Humidity;BMP_temperature;BMP_pressure;BME280_temperature;BME280_humidity;BME280_pressure;Samples;Min_cycle;Max_cycle;Signal;HPM_P1;HPM_P2
2022/05/26 00:01:16;;;;;;;7.38;2.50;;;15.60;99.90;;;;;;4163112;28;20195;-93
2022/05/26 00:03:17;;;;;;;10.48;2.88;;;15.70;99.90;;;;;;4163091;28;20239;-87
2022/05/26 00:05:18;;;;;;;9.50;2.63;;;15.80;99.90;;;;;;4196118;28;20159;-90
2022/05/26 00:07:19;;;;;;;10.63;2.95;;;15.80;99.90;;;;;;4163232;28;20301;-92
2022/05/26 00:09:19;;;;;;;8.70;2.45;;;15.80;99.90;;;;;;4179557;28;20175;-93
2022/05/26 00:11:25;;;;;;;12.75;3.03;;;15.90;99.90;;;;;;4179427;28;20199;-88
2022/05/26 00:13:26;;;;;;;9.98;2.58;;;15.90;99.90;;;;;;4179546;28;20314;-94
2022/05/26 00:15:27;;;;;;;10.93;3.03;;;15.90;99.90;;;;;;4179517;28;20168;-90
2022/05/26 00:17:28;;;;;;;11.20;3.25;;;16.00;99.90;;;;;;4195884;28;20194;-90
2022/05/26 00:19:29;;;;;;;6.82;2.42;;;15.90;99.90;;;;;;4163156;28;20234;-88
2022/05/26 00:21:30;;;;;;;8.65;2.55;;;15.70;99.90;;;;;;4180047;28;20171;-85
2022/05/26 00:23:31;;;;;;;12.20;3.30;;;15.70;99.90;;;;;;4162726;28;20173;-87
2022/05/26 00:25:32;;;;;;;11.23;2.97;;;15.70;99.90;;;;;;4195592;28;20535;-89
2022/05/26 00:27:33;;;;;;;10.35;3.00;;;15.90;99.90;;;;;;4162976;28;20188;-86
2022/05/26 00:29:34;;;;;;;14.48;4.00;;;15.90;99.90;;;;;;4162398;28;20180;-92
2022/05/26 00:31:35;;;;;;;13.30;2.92;;;15.80;99.90;;;;;;4163031;28;20216;-85
2022/05/26 00:33:35;;;;;;;18.30;3.28;;;15.90;99.90;;;;;;4195908;28;20257;-86
2022/05/26 00:35:40;;;;;;;15.75;2.88;;;15.80;99.90;;;;;;4162831;28;20214;-88
2022/05/26 00:37:42;;;;;;;10.30;2.72;;;15.80;99.90;;;;;;4179143;28;20215;-92
2022/05/26 00:39:42;;;;;;;13.15;2.92;;;15.80;99.90;;;;;;4162850;28;20246;-92
2022/05/26 00:41:51;;;;;;;11.50;3.35;;;15.80;99.90;;;;;;4195669;28;20174;-87
2022/05/26 00:43:51;;;;;;;13.23;2.80;;;15.80;99.90;;;;;;4178671;28;20171;-92
2022/05/26 00:46:00;;;;;;;12.18;3.47;;;15.80;99.90;;;;;;4179382;28;20678;-86
2022/05/26 00:48:01;;;;;;;17.58;3.30;;;15.80;99.90;;;;;;4162374;28;20246;-85
2022/05/26 00:50:06;;;;;;;11.98;3.00;;;15.80;99.90;;;;;;4179134;28;20171;-92
2022/05/26 00:52:17;;;;;;;13.38;3.33;;;15.80;99.90;;;;;;4178591;28;20220;-86
2022/05/26 00:54:22;;;;;;;15.07;3.08;;;15.80;99.90;;;;;;4178796;28;20167;-88
2022/05/26 00:56:32;;;;;;;8.43;2.70;;;15.70;99.90;;;;;;4162624;28;20183;-93
2022/05/26 00:58:37;;;;;;;13.32;2.40;;;15.60;99.90;;;;;;4162714;28;20274;-87
2022/05/26 01:00:38;;;;;;;12.45;3.00;;;15.70;99.90;;;;;;4179394;28;20183;-92
2022/05/26 01:03:09;;;;;;;22.20;3.60;;;15.70;99.90;;;;;;4162642;28;20199;-92
2022/05/26 01:05:25;;;;;;;13.88;3.03;;;15.80;99.90;;;;;;4153639;28;20684;-85
2022/05/26 01:07:30;;;;;;;13.82;3.25;;;15.80;99.90;;;;;;4165840;28;20290;-87
2022/05/26 01:09:31;;;;;;;16.13;3.28;;;15.70;99.90;;;;;;4165305;28;20191;-87
2022/05/26 01:11:35;;;;;;;11.82;2.63;;;15.80;99.90;;;;;;4210250;22;20701;-90
2022/05/26 01:14:00;;;;;;;14.90;2.60;;;15.90;99.90;;;;;;4215892;28;20263;-90
2022/05/26 01:16:17;;;;;;;17.63;3.25;;;15.80;99.90;;;;;;4215794;28;20188;-90
2022/05/26 01:18:40;;;;;;;12.75;2.50;;;15.90;99.90;;;;;;4182515;28;20206;-90
2022/05/26 01:20:54;;;;;;;16.13;3.08;;;15.80;99.90;;;;;;4163697;28;20183;-90
2022/05/26 01:23:14;;;;;;;14.25;2.42;;;15.80;99.90;;;;;;4199162;28;20196;-90
2022/05/26 01:25:51;;;;;;;18.17;3.03;;;15.70;99.90;;;;;;4183019;28;20171;-89
2022/05/26 01:28:07;;;;;;;16.65;3.25;;;15.80;99.90;;;;;;4182694;28;20206;-90
2022/05/26 01:30:13;;;;;;;15.52;2.47;;;15.70;99.90;;;;;;4199389;28;20225;-90
2022/05/26 01:32:32;;;;;;;14.40;2.40;;;15.60;99.90;;;;;;4182820;28;20758;-90
2022/05/26 01:34:57;;;;;;;17.30;2.90;;;15.60;99.90;;;;;;4198918;28;20182;-90
2022/05/26 01:37:12;;;;;;;15.43;3.05;;;15.70;99.90;;;;;;4182477;28;20711;-91
2022/05/26 01:39:30;;;;;;;14.00;2.90;;;15.60;99.90;;;;;;4182531;28;20164;-91
2022/05/26 01:42:01;;;;;;;11.00;2.30;;;15.50;99.90;;;;;;4182358;28;20515;-90
2022/05/26 01:44:22;;;;;;;21.77;3.67;;;15.60;99.90;;;;;;4182031;28;20176;-90
2022/05/26 01:46:40;;;;;;;16.58;3.40;;;15.50;99.90;;;;;;4182319;28;20334;-90
2022/05/26 01:48:51;;;;;;;15.30;2.85;;;15.40;99.90;;;;;;4182411;28;20195;-91
2022/05/26 01:51:31;;;;;;;14.10;2.97;;;15.50;99.90;;;;;;4182287;28;20217;-93
2022/05/26 01:53:54;;;;;;;18.88;2.92;;;15.60;99.90;;;;;;4182674;28;20773;-90
2022/05/26 01:55:55;;;;;;;19.77;3.15;;;15.60;99.90;;;;;;4182380;28;20176;-88
2022/05/26 01:58:06;;;;;;;17.70;3.10;;;15.50;99.90;;;;;;4181947;28;20706;-90
2022/05/26 02:00:12;;;;;;;17.15;3.45;;;15.70;99.90;;;;;;4182219;28;20594;-90
2022/05/26 02:02:22;;;;;;;16.52;3.15;;;15.60;99.90;;;;;;4182270;28;20266;-91
2022/05/26 02:04:31;;;;;;;18.33;3.22;;;15.60;99.90;;;;;;4198751;28;20231;-90
2022/05/26 02:06:40;;;;;;;20.45;3.10;;;15.50;99.90;;;;;;4198626;28;20547;-89
2022/05/26 02:08:55;;;;;;;15.80;2.72;;;15.40;99.90;;;;;;4198560;28;20183;-89
2022/05/26 02:11:07;;;;;;;10.00;2.38;;;15.40;99.90;;;;;;4198300;28;20167;-90
2022/05/26 02:13:14;;;;;;;14.93;2.88;;;15.50;99.90;;;;;;4198560;28;20185;-90
2022/05/26 02:15:19;;;;;;;16.48;2.92;;;15.50;99.90;;;;;;4198472;28;20246;-91
2022/05/26 02:18:01;;;;;;;22.40;3.40;;;15.50;99.90;;;;;;4198391;28;20195;-92
2022/05/26 02:20:09;;;;;;;19.67;3.20;;;15.50;99.90;;;;;;4181434;28;20206;-90
2022/05/26 02:22:50;;;;;;;17.02;2.63;;;15.50;99.90;;;;;;4181762;28;20205;-90
2022/05/26 02:25:08;;;;;;;13.60;3.20;;;15.70;99.90;;;;;;4148388;28;20180;-90
2022/05/26 02:27:09;;;;;;;14.23;2.85;;;15.60;99.90;;;;;;4164463;28;20254;-90
2022/05/26 02:31:30;;;;;;;17.48;3.33;;;15.70;99.90;;;;;;4198140;28;20207;-89
2022/05/26 02:33:31;;;;;;;18.38;3.17;;;15.80;99.90;;;;;;4181586;28;20175;-89
2022/05/26 02:35:37;;;;;;;20.20;3.65;;;15.80;99.90;;;;;;4181181;28;20551;-90
2022/05/26 02:37:40;;;;;;;14.15;2.83;;;15.80;99.90;;;;;;4181384;28;20657;-89
2022/05/26 02:39:40;;;;;;;17.92;3.20;;;15.60;99.90;;;;;;4181770;28;20187;-89
2022/05/26 02:41:41;;;;;;;14.45;3.22;;;15.70;99.90;;;;;;4181441;28;20582;-90
2022/05/26 02:43:42;;;;;;;23.98;3.38;;;15.70;99.90;;;;;;4197901;28;20163;-89
2022/05/26 02:46:10;;;;;;;23.95;3.28;;;15.80;99.90;;;;;;4181190;28;20528;-90
2022/05/26 02:48:48;;;;;;;20.85;3.42;;;15.80;99.90;;;;;;4197708;28;20574;-89
2022/05/26 02:50:55;;;;;;;20.63;3.05;;;15.60;99.90;;;;;;4181396;28;20179;-90
2022/05/26 02:53:01;;;;;;;19.45;3.13;;;15.50;99.90;;;;;;4181467;28;20596;-89
2022/05/26 02:55:07;;;;;;;18.85;2.92;;;15.60;99.90;;;;;;4197950;28;20170;-91
2022/05/26 02:57:29;;;;;;;23.10;3.40;;;15.50;99.90;;;;;;4181003;28;20591;-89
2022/05/26 02:59:48;;;;;;;21.33;3.45;;;15.70;99.90;;;;;;4181267;28;20278;-90
2022/05/26 03:01:56;;;;;;;22.38;3.10;;;15.70;99.90;;;;;;4197942;28;20221;-89
2022/05/26 03:04:13;;;;;;;17.30;3.08;;;15.60;99.90;;;;;;4180885;28;20174;-90
2022/05/26 03:06:33;;;;;;;18.80;3.33;;;15.60;99.90;;;;;;4181116;28;20175;-92
2022/05/26 03:08:39;;;;;;;18.73;3.25;;;15.60;99.90;;;;;;4181058;28;20167;-89
2022/05/26 03:10:39;;;;;;;20.95;3.45;;;15.50;99.90;;;;;;4180949;28;20175;-89
2022/05/26 03:12:40;;;;;;;18.98;2.85;;;15.50;99.90;;;;;;4197140;28;20255;-90
2022/05/26 03:14:41;;;;;;;17.02;2.78;;;15.40;99.90;;;;;;4181007;28;20167;-90
2022/05/26 03:16:43;;;;;;;15.63;3.40;;;15.60;99.90;;;;;;4181116;28;20183;-90
2022/05/26 03:18:43;;;;;;;18.25;3.38;;;15.70;99.90;;;;;;4181139;28;20175;-89
2022/05/26 03:20:44;;;;;;;21.80;3.88;;;15.70;99.90;;;;;;4180824;28;20175;-91
2022/05/26 03:22:45;;;;;;;19.05;3.63;;;15.60;99.90;;;;;;4180954;28;20167;-90
2022/05/26 03:24:46;;;;;;;18.15;3.67;;;15.60;99.90;;;;;;4180925;28;20179;-89
2022/05/26 03:26:47;;;;;;;18.70;3.33;;;15.60;99.90;;;;;;4180442;28;20199;-90
2022/05/26 03:28:47;;;;;;;23.80;3.72;;;15.60;99.90;;;;;;4196846;28;20171;-90
2022/05/26 03:30:48;;;;;;;15.93;3.20;;;15.50;99.90;;;;;;4180774;28;20191;-90
2022/05/26 03:32:49;;;;;;;19.17;3.75;;;15.50;99.90;;;;;;4180371;28;20714;-90
2022/05/26 03:41:49;;;;;;;16.23;3.33;;;15.50;99.90;;;;;;4196947;28;20174;-89
2022/05/26 03:43:55;;;;;;;18.65;3.13;;;15.50;99.90;;;;;;4180504;28;20191;-89
2022/05/26 03:45:59;;;;;;;21.98;3.50;;;15.40;99.90;;;;;;4197051;28;20181;-90
2022/05/26 03:48:02;;;;;;;16.00;3.72;;;15.40;99.90;;;;;;4196989;28;20195;-90
2022/05/26 03:50:03;;;;;;;18.02;3.38;;;15.40;99.90;;;;;;4180556;28;20254;-89
2022/05/26 03:52:05;;;;;;;17.33;2.92;;;15.50;99.90;;;;;;4180410;28;20248;-89
2022/05/26 03:54:05;;;;;;;23.42;3.42;;;15.50;99.90;;;;;;4180065;28;20190;-90
2022/05/26 03:56:06;;;;;;;23.33;3.58;;;15.40;99.90;;;;;;4196944;28;20170;-90
2022/05/26 03:58:07;;;;;;;24.30;4.03;;;15.60;99.90;;;;;;4180027;28;20646;-88
2022/05/26 04:00:09;;;;;;;21.33;3.30;;;15.70;99.90;;;;;;4196669;28;20170;-92
2022/05/26 04:02:13;;;;;;;18.67;3.47;;;15.70;99.90;;;;;;4197261;28;20167;-90
2022/05/26 04:04:14;;;;;;;17.55;4.35;;;15.60;99.90;;;;;;4180544;28;20649;-90
2022/05/26 04:06:16;;;;;;;18.90;3.88;;;15.60;99.90;;;;;;4180007;28;20170;-90
2022/05/26 04:08:18;;;;;;;27.35;3.75;;;15.50;99.90;;;;;;4180636;28;20261;-90
2022/05/26 04:10:19;;;;;;;14.73;3.45;;;15.60;99.90;;;;;;4180423;28;20167;-89
2022/05/26 04:12:20;;;;;;;17.05;3.35;;;15.50;99.90;;;;;;4180140;28;20702;-89
2022/05/26 04:14:21;;;;;;;22.92;3.92;;;15.50;99.90;;;;;;4180311;28;20222;-90
2022/05/26 04:16:23;;;;;;;23.98;3.70;;;15.50;99.90;;;;;;4180377;28;20575;-91
2022/05/26 04:18:23;;;;;;;14.48;3.35;;;15.50;99.90;;;;;;4196870;28;20159;-90
2022/05/26 04:20:24;;;;;;;16.42;3.67;;;15.50;99.90;;;;;;4180305;28;20556;-89
2022/05/26 04:22:25;;;;;;;17.67;3.35;;;15.60;99.90;;;;;;4180233;28;20532;-89
2022/05/26 04:24:26;;;;;;;26.75;4.25;;;15.70;99.90;;;;;;4180233;28;20179;-90
2022/05/26 04:26:27;;;;;;;18.60;3.80;;;15.80;99.90;;;;;;4179613;28;20179;-90
2022/05/26 04:28:28;;;;;;;20.70;4.22;;;15.80;99.90;;;;;;4180079;28;20210;-89
2022/05/26 04:30:28;;;;;;;15.85;3.92;;;15.60;99.90;;;;;;4180227;28;20620;-90
2022/05/26 04:32:29;;;;;;;19.63;3.83;;;15.60;99.90;;;;;;4179812;28;20235;-91
2022/05/26 04:34:30;;;;;;;19.30;4.07;;;15.60;99.90;;;;;;4180133;28;20173;-90
2022/05/26 04:36:30;;;;;;;21.85;4.38;;;15.70;99.90;;;;;;4179851;28;20278;-90
2022/05/26 04:38:32;;;;;;;22.35;3.50;;;15.60;99.90;;;;;;4196406;28;20178;-89
2022/05/26 04:40:33;;;;;;;21.98;4.00;;;15.50;99.90;;;;;;4198907;28;20174;-91
2022/05/26 04:42:35;;;;;;;20.63;3.47;;;15.50;99.90;;;;;;4183203;28;20253;-90
2022/05/26 04:44:39;;;;;;;24.27;4.38;;;15.60;99.90;;;;;;4183212;28;20164;-89
2022/05/26 04:46:39;;;;;;;21.00;3.70;;;15.60;99.90;;;;;;4183319;28;20199;-91
2022/05/26 04:48:40;;;;;;;19.75;4.65;;;15.70;99.90;;;;;;4199701;28;20185;-90
2022/05/26 04:50:42;;;;;;;18.38;3.83;;;15.50;99.90;;;;;;4183149;28;20167;-90
2022/05/26 04:52:43;;;;;;;19.63;4.28;;;15.40;99.90;;;;;;4182951;28;20253;-94
2022/05/26 04:54:45;;;;;;;20.77;4.32;;;15.40;99.90;;;;;;4183221;28;20167;-89
2022/05/26 04:56:46;;;;;;;24.88;4.63;;;15.50;99.90;;;;;;4182894;28;20253;-93
2022/05/26 04:58:47;;;;;;;21.80;4.43;;;15.80;99.90;;;;;;4182993;28;20182;-92
2022/05/26 05:00:48;;;;;;;18.30;4.32;;;15.80;99.90;;;;;;4182986;28;20171;-90
2022/05/26 05:02:48;;;;;;;20.33;4.97;;;15.80;99.90;;;;;;4183191;28;20685;-89
2022/05/26 05:04:50;;;;;;;22.00;3.88;;;16.00;99.90;;;;;;4182873;28;20186;-88
2022/05/26 05:06:52;;;;;;;21.55;3.70;;;16.00;99.90;;;;;;4183025;28;20195;-90
2022/05/26 05:08:52;;;;;;;17.27;3.63;;;16.00;99.90;;;;;;4182943;28;20167;-89
2022/05/26 05:10:53;;;;;;;22.77;4.07;;;15.90;99.90;;;;;;4182988;28;20582;-90
2022/05/26 05:12:56;;;;;;;19.05;3.80;;;16.00;99.90;;;;;;4182992;28;20211;-90
2022/05/26 05:14:58;;;;;;;20.58;3.65;;;15.90;99.90;;;;;;4199616;28;20174;-90
2022/05/26 05:16:59;;;;;;;22.10;3.83;;;15.90;99.90;;;;;;4182933;28;20191;-91
2022/05/26 05:18:59;;;;;;;24.40;3.90;;;15.80;99.90;;;;;;4182699;28;20174;-89
2022/05/26 05:21:07;;;;;;;23.10;4.00;;;16.00;99.90;;;;;;4182668;28;20226;-89
2022/05/26 05:23:11;;;;;;;16.30;3.13;;;16.00;99.90;;;;;;4182691;28;20206;-91
2022/05/26 05:25:12;;;;;;;18.35;3.80;;;16.00;99.90;;;;;;4183001;28;20194;-90
2022/05/26 05:27:15;;;;;;;25.88;4.35;;;16.00;99.90;;;;;;4182558;28;20188;-91
2022/05/26 05:29:20;;;;;;;17.75;4.28;;;15.90;99.90;;;;;;4199016;28;20181;-89
2022/05/26 05:31:27;;;;;;;24.38;4.38;;;15.90;99.90;;;;;;4198987;28;20210;-89
2022/05/26 05:33:59;;;;;;;24.15;4.00;;;16.00;99.90;;;;;;4199219;28;20179;-89
2022/05/26 05:36:09;;;;;;;16.10;3.50;;;16.10;99.90;;;;;;4186887;28;20639;-91
2022/05/26 05:38:10;;;;;;;13.50;3.20;;;16.30;99.90;;;;;;4198996;28;20177;-92
2022/05/26 05:40:11;;;;;;;23.73;3.88;;;16.60;99.90;;;;;;4182562;28;20266;-91
2022/05/26 05:42:12;;;;;;;19.98;3.20;;;16.70;99.90;;;;;;4182416;28;20210;-91
2022/05/26 05:44:13;;;;;;;18.75;4.07;;;16.90;99.90;;;;;;4198779;28;20205;-91
2022/05/26 05:46:19;;;;;;;19.48;3.63;;;16.90;99.90;;;;;;4198808;28;20569;-91
2022/05/26 05:48:21;;;;;;;21.65;3.70;;;16.90;99.90;;;;;;4182449;28;20620;-91
2022/05/26 05:50:22;;;;;;;15.23;3.88;;;16.90;99.90;;;;;;4181892;28;20230;-90
2022/05/26 05:52:23;;;;;;;22.98;3.95;;;17.00;99.90;;;;;;4182338;28;20210;-91
2022/05/26 05:54:24;;;;;;;19.10;4.50;;;17.00;99.90;;;;;;4182307;28;20635;-92
2022/05/26 05:56:25;;;;;;;17.50;4.13;;;17.00;99.90;;;;;;4182070;28;20221;-91
2022/05/26 05:58:26;;;;;;;22.42;4.05;;;16.90;99.90;;;;;;4182391;28;20180;-92
2022/05/26 06:00:26;;;;;;;22.17;3.97;;;17.10;99.90;;;;;;4182421;28;20202;-91
2022/05/26 06:02:27;;;;;;;16.25;4.68;;;17.30;99.90;;;;;;4181891;28;20278;-91
2022/05/26 06:04:28;;;;;;;19.63;4.40;;;17.30;99.90;;;;;;4182465;28;20174;-92
2022/05/26 06:06:35;;;;;;;21.33;4.63;;;17.30;99.90;;;;;;4182054;28;20583;-90
2022/05/26 06:08:37;;;;;;;20.73;4.18;;;17.20;99.90;;;;;;4182219;28;20183;-91
2022/05/26 06:10:38;;;;;;;17.13;4.32;;;17.10;99.90;;;;;;4181990;28;20274;-89
2022/05/26 06:12:39;;;;;;;21.85;4.30;;;17.10;99.90;;;;;;4181441;28;20211;-91
2022/05/26 06:14:42;;;;;;;18.98;4.25;;;17.10;99.90;;;;;;4182181;28;20722;-91
2022/05/26 06:16:44;;;;;;;19.73;5.45;;;17.20;99.90;;;;;;4181788;28;20195;-90
2022/05/26 06:18:46;;;;;;;23.70;5.15;;;17.30;99.90;;;;;;4198427;28;20174;-91
2022/05/26 06:20:47;;;;;;;16.90;4.30;;;17.40;99.90;;;;;;4181754;28;20262;-90
2022/05/26 06:22:49;;;;;;;22.73;5.00;;;17.70;99.90;;;;;;4182109;28;20175;-90
2022/05/26 06:24:50;;;;;;;20.73;4.43;;;17.80;99.90;;;;;;4181782;28;20616;-91
2022/05/26 06:26:51;;;;;;;27.42;4.60;;;17.80;99.90;;;;;;4198241;28;20202;-90
2022/05/26 06:31:12;;;;;;;20.60;5.40;;;18.00;99.90;;;;;;4198370;28;20171;-92
2022/05/26 06:37:52;;;;;;;17.50;5.10;;;17.80;99.90;;;;;;4198024;28;20756;-91
2022/05/26 06:39:52;;;;;;;20.15;5.40;;;18.00;99.90;;;;;;4197742;28;20167;-91
2022/05/26 06:42:05;;;;;;;18.33;5.65;;;18.00;99.90;;;;;;4181373;28;20639;-92
2022/05/26 06:44:08;;;;;;;18.20;4.47;;;18.10;99.90;;;;;;4181229;28;20187;-91
2022/05/26 06:46:09;;;;;;;20.30;4.72;;;18.10;99.90;;;;;;4181538;28;20275;-91
2022/05/26 06:48:10;;;;;;;20.83;5.40;;;18.10;99.90;;;;;;4181671;28;20204;-93
2022/05/26 06:50:11;;;;;;;16.42;4.85;;;18.20;99.90;;;;;;4181303;28;20233;-90
2022/05/26 06:52:13;;;;;;;22.00;5.30;;;18.20;99.90;;;;;;4181458;28;20268;-91
2022/05/26 06:54:14;;;;;;;21.80;4.93;;;18.50;99.90;;;;;;4181672;28;20172;-91
2022/05/26 06:56:15;;;;;;;19.13;3.90;;;18.70;99.90;;;;;;4197671;28;20179;-90
2022/05/26 06:58:16;;;;;;;15.85;4.10;;;19.00;99.90;;;;;;4181471;28;20587;-90
2022/05/26 07:00:19;;;;;;;21.13;4.13;;;19.20;99.90;;;;;;4198084;28;20179;-91
2022/05/26 07:02:20;;;;;;;14.25;4.30;;;19.30;99.90;;;;;;4197174;28;20185;-92
2022/05/26 07:04:22;;;;;;;17.38;4.00;;;19.20;99.90;;;;;;4181114;28;20567;-91
2022/05/26 07:06:25;;;;;;;16.23;4.40;;;19.20;99.90;;;;;;4181509;28;20174;-91
2022/05/26 07:08:26;;;;;;;15.13;3.65;;;19.20;99.90;;;;;;4180964;28;20201;-91
2022/05/26 07:10:27;;;;;;;20.60;4.25;;;19.20;99.90;;;;;;4181214;28;20701;-90
2022/05/26 07:12:28;;;;;;;19.30;4.13;;;19.10;99.90;;;;;;4181467;28;20211;-90
2022/05/26 07:14:28;;;;;;;15.07;3.50;;;19.10;99.90;;;;;;4181117;28;20257;-91
2022/05/26 07:16:29;;;;;;;12.90;3.40;;;19.30;99.90;;;;;;4181002;28;20622;-91
2022/05/26 07:18:30;;;;;;;16.80;3.90;;;19.40;99.90;;;;;;4180809;28;20169;-92
2022/05/26 07:20:33;;;;;;;19.95;4.18;;;19.50;99.90;;;;;;4180941;28;20179;-91
2022/05/26 07:22:34;;;;;;;18.77;3.90;;;19.60;99.90;;;;;;4197530;28;20178;-91
2022/05/26 07:24:34;;;;;;;18.05;3.95;;;19.60;99.90;;;;;;4180943;28;20175;-90
2022/05/26 07:26:36;;;;;;;13.90;3.08;;;19.40;99.90;;;;;;4180645;28;20229;-91
2022/05/26 07:28:40;;;;;;;12.25;2.72;;;19.50;99.90;;;;;;4180778;28;20178;-90
2022/05/26 07:30:41;;;;;;;14.95;3.20;;;19.70;99.90;;;;;;4180899;28;20182;-91
2022/05/26 07:32:42;;;;;;;12.45;3.25;;;19.40;99.90;;;;;;4197764;28;20211;-92
2022/05/26 07:34:43;;;;;;;16.00;3.42;;;19.40;99.90;;;;;;4180976;28;20627;-92
2022/05/26 07:41:26;;;;;;;14.05;3.22;;;19.70;99.90;;;;;;4199482;28;20174;-92
2022/05/26 07:43:27;;;;;;;20.92;3.97;;;19.80;99.90;;;;;;4198990;28;20163;-90
2022/05/26 07:45:28;;;;;;;15.10;3.83;;;20.00;99.90;;;;;;4182623;28;20201;-91
2022/05/26 07:47:29;;;;;;;12.35;3.00;;;20.30;99.90;;;;;;4183183;28;20191;-92
2022/05/26 07:49:30;;;;;;;13.98;3.10;;;20.70;99.90;;;;;;4180992;28;20194;-91
2022/05/26 07:51:31;;;;;;;22.27;3.35;;;21.30;99.90;;;;;;4197269;28;20596;-91
2022/05/26 07:53:32;;;;;;;18.80;2.85;;;21.80;99.90;;;;;;4180916;28;20179;-90
2022/05/26 07:55:33;;;;;;;11.52;3.00;;;21.90;99.90;;;;;;4180590;28;20627;-90
2022/05/26 07:57:34;;;;;;;16.15;2.95;;;21.60;99.90;;;;;;4180239;28;20194;-91
2022/05/26 07:59:35;;;;;;;15.38;3.08;;;21.20;99.90;;;;;;4180361;28;20167;-90
2022/05/26 08:01:36;;;;;;;17.20;3.00;;;20.90;99.90;;;;;;4181290;28;20167;-87
2022/05/26 08:03:38;;;;;;;17.02;3.15;;;20.70;99.90;;;;;;4182096;28;20560;-91
2022/05/26 08:05:40;;;;;;;14.50;3.30;;;20.60;99.90;;;;;;4196673;28;20151;-91
2022/05/26 08:07:41;;;;;;;18.55;3.25;;;20.50;99.90;;;;;;4188730;28;20199;-92
2022/05/26 08:09:42;;;;;;;16.17;3.22;;;20.40;99.90;;;;;;4180746;28;20179;-91
2022/05/26 08:11:44;;;;;;;15.07;2.85;;;20.60;99.90;;;;;;4180274;28;20215;-91
2022/05/26 08:13:45;;;;;;;12.93;2.92;;;20.70;99.90;;;;;;4180308;28;20197;-93
2022/05/26 08:15:46;;;;;;;12.65;3.10;;;20.60;99.90;;;;;;4180511;28;20176;-90
2022/05/26 08:17:47;;;;;;;14.60;2.83;;;20.40;99.90;;;;;;4180421;28;20183;-88
2022/05/26 08:19:49;;;;;;;16.00;2.88;;;20.20;99.90;;;;;;4196512;28;20551;-96
2022/05/26 08:21:49;;;;;;;10.80;2.33;;;20.30;99.90;;;;;;4180445;28;20187;-92
2022/05/26 08:23:52;;;;;;;15.00;2.53;;;20.40;99.90;;;;;;4180449;28;20677;-89
2022/05/26 08:25:53;;;;;;;16.33;2.70;;;20.50;99.90;;;;;;4180932;28;20176;-88
2022/05/26 08:27:53;;;;;;;14.48;2.58;;;20.00;99.90;;;;;;4180079;28;20257;-89
2022/05/26 08:29:54;;;;;;;12.55;2.35;;;20.00;99.90;;;;;;4180300;28;20175;-90
2022/05/26 08:31:55;;;;;;;15.30;2.58;;;20.10;99.90;;;;;;4180846;28;20207;-88
2022/05/26 08:33:56;;;;;;;10.77;2.45;;;20.30;99.90;;;;;;4180546;28;20206;-90
2022/05/26 08:36:05;;;;;;;22.25;2.67;;;19.80;99.90;;;;;;4198110;28;20198;-90
2022/05/26 08:38:06;;;;;;;15.77;2.60;;;19.80;99.90;;;;;;4181420;28;20191;-91
2022/05/26 08:40:08;;;;;;;9.85;2.10;;;19.80;99.90;;;;;;4180455;28;20202;-90
2022/05/26 08:42:25;;;;;;;12.65;2.38;;;20.20;99.90;;;;;;4179786;28;20182;-92
2022/05/26 08:44:30;;;;;;;13.13;2.63;;;20.40;99.90;;;;;;4196935;28;20175;-89
2022/05/26 08:46:46;;;;;;;11.02;2.38;;;20.30;99.90;;;;;;4196733;28;20287;-90
2022/05/26 08:48:48;;;;;;;13.27;2.58;;;20.80;99.90;;;;;;4196827;28;20570;-91
2022/05/26 08:50:48;;;;;;;11.90;2.40;;;20.90;99.90;;;;;;4180080;28;20270;-90
2022/05/26 08:53:01;;;;;;;8.23;2.08;;;21.10;99.90;;;;;;4196292;28;20277;-91
2022/05/26 08:55:06;;;;;;;9.27;2.03;;;20.90;99.90;;;;;;4196650;28;20611;-88
2022/05/26 08:57:12;;;;;;;15.85;2.00;;;21.30;99.90;;;;;;4213071;28;20206;-90
2022/05/26 08:59:15;;;;;;;10.00;2.13;;;22.60;99.90;;;;;;4196649;28;20506;-90
2022/05/26 09:01:20;;;;;;;15.20;2.38;;;23.70;99.90;;;;;;4180152;28;20178;-90
2022/05/26 09:03:28;;;;;;;10.30;2.28;;;24.10;99.90;;;;;;4196435;28;20236;-90
2022/05/26 09:05:37;;;;;;;9.30;1.80;;;24.30;99.90;;;;;;4197219;28;20178;-90
2022/05/26 09:14:44;;;;;;;12.23;2.08;;;27.10;99.90;;;;;;4196267;28;20174;-90
2022/05/26 09:16:45;;;;;;;10.88;2.28;;;26.40;99.90;;;;;;4196379;28;20191;-92
2022/05/26 09:19:15;;;;;;;9.13;1.88;;;25.80;99.90;;;;;;4180031;28;20168;-93
2022/05/26 09:21:28;;;;;;;6.30;1.60;;;25.80;99.90;;;;;;4180282;28;20167;-90
2022/05/26 09:23:29;;;;;;;8.65;1.52;;;26.10;99.90;;;;;;4197017;28;20253;-91
2022/05/26 09:25:57;;;;;;;7.30;1.65;;;26.10;99.90;;;;;;4182063;28;20183;-90
2022/05/26 09:27:58;;;;;;;10.50;1.58;;;26.40;99.90;;;;;;4201965;28;20206;-92
2022/05/26 09:30:24;;;;;;;5.78;1.35;;;26.00;99.90;;;;;;4184670;28;20172;-89
2022/05/26 09:32:30;;;;;;;7.93;1.48;;;25.30;99.90;;;;;;4185225;28;20215;-90
2022/05/26 09:34:33;;;;;;;8.77;1.98;;;24.40;99.90;;;;;;4185380;28;20171;-92
2022/05/26 09:36:43;;;;;;;7.22;1.70;;;23.90;99.90;;;;;;4184351;28;20203;-92
2022/05/26 09:38:44;;;;;;;8.13;1.77;;;23.10;99.90;;;;;;4185183;28;20190;-92
2022/05/26 09:40:46;;;;;;;8.88;2.00;;;22.40;99.90;;;;;;4184337;28;20255;-91
2022/05/26 09:42:56;;;;;;;11.43;1.75;;;22.30;99.90;;;;;;4183743;28;20662;-89
2022/05/26 09:45:06;;;;;;;7.30;1.52;;;22.70;99.90;;;;;;4199261;28;20174;-90
2022/05/26 09:47:25;;;;;;;10.23;1.38;;;23.30;99.90;;;;;;4182302;28;20221;-91
2022/05/26 09:49:32;;;;;;;8.10;1.45;;;24.20;99.90;;;;;;4182396;28;20174;-92
2022/05/26 09:51:46;;;;;;;7.10;1.50;;;25.20;99.90;;;;;;4182301;28;20211;-92
2022/05/26 09:53:48;;;;;;;8.68;1.40;;;25.10;99.90;;;;;;4215859;28;20174;-92
2022/05/26 09:55:51;;;;;;;8.27;1.60;;;25.10;99.90;;;;;;4199274;28;20551;-91
2022/05/26 09:58:07;;;;;;;9.50;1.90;;;25.20;99.90;;;;;;4198862;28;20197;-91
2022/05/26 10:00:15;;;;;;;8.63;1.45;;;24.90;99.90;;;;;;4182497;28;20518;-91
2022/05/26 10:02:39;;;;;;;6.35;1.30;;;24.80;99.90;;;;;;4182494;28;20678;-94
2022/05/26 10:04:59;;;;;;;6.78;1.58;;;25.30;99.90;;;;;;4182470;28;20655;-92
2022/05/26 10:07:32;;;;;;;6.28;1.30;;;25.90;99.90;;;;;;4182151;28;20207;-93
2022/05/26 10:09:46;;;;;;;5.10;1.27;;;26.70;99.90;;;;;;4181358;28;20179;-89
2022/05/26 10:12:03;;;;;;;4.55;1.20;;;25.60;99.90;;;;;;4198379;28;20260;-89
2022/05/26 10:14:33;;;;;;;9.77;1.55;;;25.20;99.90;;;;;;4181842;28;20179;-90
2022/05/26 10:16:45;;;;;;;7.72;1.48;;;24.90;99.90;;;;;;4181304;28;20203;-87
2022/05/26 10:19:30;;;;;;;7.43;1.67;;;25.10;99.90;;;;;;4182026;28;20686;-90
2022/05/26 10:21:39;;;;;;;7.22;1.63;;;25.10;99.90;;;;;;4160544;28;20599;-91
2022/05/26 10:23:53;;;;;;;10.63;1.90;;;24.60;99.90;;;;;;4198167;28;20173;-91
2022/05/26 10:26:14;;;;;;;12.20;1.45;;;24.70;99.90;;;;;;4198604;28;20653;-91
2022/05/26 10:28:18;;;;;;;8.60;1.70;;;24.30;99.90;;;;;;4182072;28;20182;-91
2022/05/26 10:30:30;;;;;;;6.78;1.35;;;24.10;99.90;;;;;;4181720;28;20172;-89
2022/05/26 10:32:52;;;;;;;9.27;1.48;;;24.20;99.90;;;;;;4183191;28;20211;-93
2022/05/26 10:35:10;;;;;;;8.25;1.50;;;23.80;99.90;;;;;;4195446;28;20225;-90
2022/05/26 10:37:16;;;;;;;6.32;1.63;;;23.40;99.90;;;;;;4192092;28;20545;-92
2022/05/26 10:39:26;;;;;;;5.75;1.50;;;23.00;99.90;;;;;;4181418;28;20599;-91
2022/05/26 10:41:33;;;;;;;10.07;1.77;;;23.00;99.90;;;;;;4181765;28;20183;-91
2022/05/26 10:43:58;;;;;;;6.38;1.25;;;23.20;99.90;;;;;;4181168;28;20179;-89
2022/05/26 10:46:00;;;;;;;7.45;1.50;;;23.30;99.90;;;;;;4181697;28;20175;-91
2022/05/26 10:48:24;;;;;;;8.43;1.60;;;23.10;99.90;;;;;;4181801;28;20254;-89
2022/05/26 10:51:08;;;;;;;8.40;1.48;;;23.40;99.90;;;;;;4181694;28;20167;-93
2022/05/26 10:53:49;;;;;;;8.80;1.63;;;23.30;99.90;;;;;;4181305;28;20191;-89
2022/05/26 10:55:57;;;;;;;5.38;1.23;;;23.30;99.90;;;;;;4181429;28;20186;-90
2022/05/26 10:58:02;;;;;;;3.65;0.90;;;23.40;99.90;;;;;;4181156;28;20571;-88
2022/05/26 11:00:18;;;;;;;7.90;1.42;;;23.40;99.90;;;;;;4181499;28;20163;-91
2022/05/26 11:02:48;;;;;;;4.93;1.10;;;23.10;99.90;;;;;;4181215;28;20180;-88
2022/05/26 11:05:12;;;;;;;4.60;1.33;;;23.00;99.90;;;;;;4181325;28;20171;-91
2022/05/26 11:07:25;;;;;;;3.90;0.90;;;22.80;99.90;;;;;;4181478;28;20591;-93
2022/05/26 11:09:41;;;;;;;6.85;1.05;;;22.70;99.90;;;;;;4181078;28;20201;-89
2022/05/26 11:11:48;;;;;;;5.82;1.40;;;22.80;99.90;;;;;;4180928;28;20215;-88
2022/05/26 11:19:21;;;;;;;6.25;1.20;;;22.30;99.90;;;;;;4197771;28;20658;-90
2022/05/26 11:21:23;;;;;;;6.57;1.17;;;22.50;99.90;;;;;;4197579;28;20216;-91
2022/05/26 11:23:28;;;;;;;5.28;1.10;;;22.90;99.90;;;;;;4164781;28;20184;-89
2022/05/26 11:25:38;;;;;;;3.88;1.10;;;23.30;99.90;;;;;;4181227;28;20221;-91